sensor_id;sensor_type;location;lat;lon;timestamp;P1;durP1;ratioP1;P2;durP2;ratioP2
38238;SDS011;24035;48.900;9.188;2023-04-24T00:00:16;0.70;;;0.30;;
38238;SDS011;24035;48.900;9.188;2023-04-24T00:02:43;0.90;;;0.20;;
38238;SDS011;24035;48.900;9.188;2023-04-24T00:05:16;0.93;;;0.38;;
38238;SDS011;24035;48.900;9.188;2023-04-24T00:07:42;0.98;;;0.20;;
38238;SDS011;24035;48.900;9.188;2023-04-24T00:10:09;1.25;;;0.40;;
38238;SDS011;24035;48.900;9.188;2023-04-24T00:12:35;0.47;;;0.20;;
38238;SDS011;24035;48.900;9.188;2023-04-24T00:15:01;0.85;;;0.30;;
38238;SDS011;24035;48.900;9.188;2023-04-24T00:17:27;0.25;;;0.10;;
38238;SDS011;24035;48.900;9.188;2023-04-24T00:19:53;0.98;;;0.30;;
38238;SDS011;24035;48.900;9.188;2023-04-24T00:22:26;1.55;;;0.30;;
38238;SDS011;24035;48.900;9.188;2023-04-24T00:24:53;1.08;;;0.22;;
38238;SDS011;24035;48.900;9.188;2023-04-24T00:27:19;1.17;;;0.35;;
38238;SDS011;24035;48.900;9.188;2023-04-24T00:29:45;1.08;;;0.20;;
38238;SDS011;24035;48.900;9.188;2023-04-24T00:32:11;1.85;;;0.30;;
38238;SDS011;24035;48.900;9.188;2023-04-24T00:34:37;0.50;;;0.20;;
38238;SDS011;24035;48.900;9.188;2023-04-24T00:37:02;0.43;;;0.10;;
38238;SDS011;24035;48.900;9.188;2023-04-24T00:39:28;1.30;;;0.25;;
38238;SDS011;24035;48.900;9.188;2023-04-24T00:41:54;0.55;;;0.10;;
38238;SDS011;24035;48.900;9.188;2023-04-24T00:44:20;2.10;;;0.20;;
38238;SDS011;24035;48.900;9.188;2023-04-24T00:46:46;1.65;;;0.20;;
38238;SDS011;24035;48.900;9.188;2023-04-24T00:49:16;1.75;;;0.30;;
38238;SDS011;24035;48.900;9.188;2023-04-24T00:51:43;0.85;;;0.32;;
38238;SDS011;24035;48.900;9.188;2023-04-24T00:54:13;0.75;;;0.13;;
38238;SDS011;24035;48.900;9.188;2023-04-24T00:56:39;0.35;;;0.10;;
38238;SDS011;24035;48.900;9.188;2023-04-24T00:59:05;0.43;;;0.20;;
38238;SDS011;24035;48.900;9.188;2023-04-24T01:01:31;0.75;;;0.10;;
38238;SDS011;24035;48.900;9.188;2023-04-24T01:03:57;0.40;;;0.15;;
38238;SDS011;24035;48.900;9.188;2023-04-24T01:06:26;0.82;;;0.20;;
38238;SDS011;24035;48.900;9.188;2023-04-24T01:08:53;0.95;;;0.25;;
38238;SDS011;24035;48.900;9.188;2023-04-24T01:11:21;1.75;;;0.20;;
38238;SDS011;24035;48.900;9.188;2023-04-24T01:13:47;0.90;;;0.28;;
38238;SDS011;24035;48.900;9.188;2023-04-24T01:16:13;1.50;;;0.28;;
38238;SDS011;24035;48.900;9.188;2023-04-24T01:18:40;0.65;;;0.10;;
38238;SDS011;24035;48.900;9.188;2023-04-24T01:21:06;2.20;;;0.28;;
38238;SDS011;24035;48.900;9.188;2023-04-24T01:23:33;0.95;;;0.30;;
38238;SDS011;24035;48.900;9.188;2023-04-24T01:26:00;0.93;;;0.20;;
38238;SDS011;24035;48.900;9.188;2023-04-24T01:28:25;1.20;;;0.20;;
38238;SDS011;24035;48.900;9.188;2023-04-24T01:30:51;0.28;;;0.10;;
38238;SDS011;24035;48.900;9.188;2023-04-24T01:33:17;1.13;;;0.38;;
38238;SDS011;24035;48.900;9.188;2023-04-24T01:35:43;0.57;;;0.20;;
38238;SDS011;24035;48.900;9.188;2023-04-24T01:38:12;0.50;;;0.20;;
38238;SDS011;24035;48.900;9.188;2023-04-24T01:40:37;1.48;;;0.20;;
38238;SDS011;24035;48.900;9.188;2023-04-24T01:43:03;1.05;;;0.30;;
38238;SDS011;24035;48.900;9.188;2023-04-24T01:45:29;0.75;;;0.28;;
38238;SDS011;24035;48.900;9.188;2023-04-24T01:47:55;1.10;;;0.28;;
38238;SDS011;24035;48.900;9.188;2023-04-24T01:50:21;0.98;;;0.40;;
38238;SDS011;24035;48.900;9.188;2023-04-24T01:52:47;0.60;;;0.13;;
38238;SDS011;24035;48.900;9.188;2023-04-24T01:55:12;1.42;;;0.35;;
38238;SDS011;24035;48.900;9.188;2023-04-24T01:57:38;1.58;;;0.32;;
38238;SDS011;24035;48.900;9.188;2023-04-24T02:00:05;1.50;;;0.40;;
38238;SDS011;24035;48.900;9.188;2023-04-24T02:02:32;1.50;;;0.32;;
38238;SDS011;24035;48.900;9.188;2023-04-24T02:04:57;0.40;;;0.20;;
38238;SDS011;24035;48.900;9.188;2023-04-24T02:07:23;0.47;;;0.20;;
38238;SDS011;24035;48.900;9.188;2023-04-24T02:09:49;1.70;;;0.20;;
38238;SDS011;24035;48.900;9.188;2023-04-24T02:12:15;3.75;;;0.40;;
38238;SDS011;24035;48.900;9.188;2023-04-24T02:14:42;1.05;;;0.22;;
38238;SDS011;24035;48.900;9.188;2023-04-24T02:17:08;1.63;;;0.20;;
38238;SDS011;24035;48.900;9.188;2023-04-24T02:19:34;1.02;;;0.22;;
38238;SDS011;24035;48.900;9.188;2023-04-24T02:22:00;1.27;;;0.47;;
38238;SDS011;24035;48.900;9.188;2023-04-24T02:24:25;0.32;;;0.13;;
38238;SDS011;24035;48.900;9.188;2023-04-24T02:26:51;1.92;;;0.30;;
38238;SDS011;24035;48.900;9.188;2023-04-24T02:29:17;1.33;;;0.32;;
38238;SDS011;24035;48.900;9.188;2023-04-24T02:31:42;0.68;;;0.20;;
38238;SDS011;24035;48.900;9.188;2023-04-24T02:34:08;1.65;;;0.20;;
38238;SDS011;24035;48.900;9.188;2023-04-24T02:36:34;1.15;;;0.28;;
38238;SDS011;24035;48.900;9.188;2023-04-24T02:39:00;1.30;;;0.38;;
38238;SDS011;24035;48.900;9.188;2023-04-24T02:41:26;1.63;;;0.32;;
38238;SDS011;24035;48.900;9.188;2023-04-24T02:43:57;0.93;;;0.20;;
38238;SDS011;24035;48.900;9.188;2023-04-24T02:46:25;1.42;;;0.28;;
38238;SDS011;24035;48.900;9.188;2023-04-24T02:48:51;3.97;;;0.95;;
38238;SDS011;24035;48.900;9.188;2023-04-24T02:51:17;2.30;;;0.75;;
38238;SDS011;24035;48.900;9.188;2023-04-24T02:53:42;0.47;;;0.10;;
38238;SDS011;24035;48.900;9.188;2023-04-24T02:56:08;0.90;;;0.20;;
38238;SDS011;24035;48.900;9.188;2023-04-24T02:58:37;0.70;;;0.25;;
38238;SDS011;24035;48.900;9.188;2023-04-24T03:01:03;0.98;;;0.20;;
38238;SDS011;24035;48.900;9.188;2023-04-24T03:03:28;0.95;;;0.13;;
38238;SDS011;24035;48.900;9.188;2023-04-24T03:05:54;1.92;;;0.22;;
38238;SDS011;24035;48.900;9.188;2023-04-24T03:08:22;1.55;;;0.25;;
38238;SDS011;24035;48.900;9.188;2023-04-24T03:10:48;2.60;;;0.30;;
38238;SDS011;24035;48.900;9.188;2023-04-24T03:13:13;0.60;;;0.25;;
38238;SDS011;24035;48.900;9.188;2023-04-24T03:15:40;0.63;;;0.20;;
38238;SDS011;24035;48.900;9.188;2023-04-24T03:18:05;0.90;;;0.30;;
38238;SDS011;24035;48.900;9.188;2023-04-24T03:20:31;0.30;;;0.05;;
38238;SDS011;24035;48.900;9.188;2023-04-24T03:22:56;2.17;;;0.40;;
38238;SDS011;24035;48.900;9.188;2023-04-24T03:25:22;0.75;;;0.20;;
38238;SDS011;24035;48.900;9.188;2023-04-24T03:27:48;2.28;;;0.50;;
38238;SDS011;24035;48.900;9.188;2023-04-24T03:30:13;0.75;;;0.30;;
38238;SDS011;24035;48.900;9.188;2023-04-24T03:32:39;0.93;;;0.30;;
38238;SDS011;24035;48.900;9.188;2023-04-24T03:35:06;0.82;;;0.20;;
38238;SDS011;24035;48.900;9.188;2023-04-24T03:37:33;0.88;;;0.22;;
38238;SDS011;24035;48.900;9.188;2023-04-24T03:39:58;1.48;;;0.40;;
38238;SDS011;24035;48.900;9.188;2023-04-24T03:42:24;1.23;;;0.45;;
38238;SDS011;24035;48.900;9.188;2023-04-24T03:44:50;0.85;;;0.32;;
38238;SDS011;24035;48.900;9.188;2023-04-24T03:47:16;1.20;;;0.43;;
38238;SDS011;24035;48.900;9.188;2023-04-24T03:49:41;1.65;;;0.40;;
38238;SDS011;24035;48.900;9.188;2023-04-24T03:52:07;4.38;;;0.88;;
38238;SDS011;24035;48.900;9.188;2023-04-24T03:54:32;2.88;;;0.47;;
38238;SDS011;24035;48.900;9.188;2023-04-24T03:56:58;2.20;;;0.45;;
38238;SDS011;24035;48.900;9.188;2023-04-24T03:59:24;0.80;;;0.30;;
38238;SDS011;24035;48.900;9.188;2023-04-24T04:01:49;1.65;;;0.40;;
38238;SDS011;24035;48.900;9.188;2023-04-24T04:04:15;1.20;;;0.22;;
38238;SDS011;24035;48.900;9.188;2023-04-24T04:06:41;1.88;;;0.30;;
38238;SDS011;24035;48.900;9.188;2023-04-24T04:09:07;1.17;;;0.20;;
38238;SDS011;24035;48.900;9.188;2023-04-24T04:11:33;1.05;;;0.38;;
38238;SDS011;24035;48.900;9.188;2023-04-24T04:14:00;0.95;;;0.40;;
38238;SDS011;24035;48.900;9.188;2023-04-24T04:16:26;1.33;;;0.45;;
38238;SDS011;24035;48.900;9.188;2023-04-24T04:18:52;0.85;;;0.30;;
38238;SDS011;24035;48.900;9.188;2023-04-24T04:21:17;1.45;;;0.30;;
38238;SDS011;24035;48.900;9.188;2023-04-24T04:23:43;0.75;;;0.30;;
38238;SDS011;24035;48.900;9.188;2023-04-24T04:26:09;1.75;;;0.45;;
38238;SDS011;24035;48.900;9.188;2023-04-24T04:28:36;1.55;;;0.43;;
38238;SDS011;24035;48.900;9.188;2023-04-24T04:31:02;1.67;;;0.73;;
38238;SDS011;24035;48.900;9.188;2023-04-24T04:33:28;1.38;;;0.25;;
38238;SDS011;24035;48.900;9.188;2023-04-24T04:35:54;2.25;;;0.38;;
38238;SDS011;24035;48.900;9.188;2023-04-24T04:38:21;1.17;;;0.40;;
38238;SDS011;24035;48.900;9.188;2023-04-24T04:40:47;1.50;;;0.28;;
38238;SDS011;24035;48.900;9.188;2023-04-24T04:43:13;2.05;;;0.55;;
38238;SDS011;24035;48.900;9.188;2023-04-24T04:45:41;2.05;;;0.30;;
38238;SDS011;24035;48.900;9.188;2023-04-24T04:48:08;1.77;;;0.30;;
38238;SDS011;24035;48.900;9.188;2023-04-24T04:50:34;1.90;;;0.50;;
38238;SDS011;24035;48.900;9.188;2023-04-24T04:53:00;2.05;;;0.55;;
38238;SDS011;24035;48.900;9.188;2023-04-24T04:55:26;1.90;;;0.50;;
38238;SDS011;24035;48.900;9.188;2023-04-24T04:57:52;0.80;;;0.30;;
38238;SDS011;24035;48.900;9.188;2023-04-24T05:00:18;2.25;;;0.57;;
38238;SDS011;24035;48.900;9.188;2023-04-24T05:02:44;3.35;;;0.40;;
38238;SDS011;24035;48.900;9.188;2023-04-24T05:05:10;0.95;;;0.30;;
38238;SDS011;24035;48.900;9.188;2023-04-24T05:07:35;1.08;;;0.40;;
38238;SDS011;24035;48.900;9.188;2023-04-24T05:10:01;0.65;;;0.22;;
38238;SDS011;24035;48.900;9.188;2023-04-24T05:12:28;1.92;;;0.40;;
38238;SDS011;24035;48.900;9.188;2023-04-24T05:14:53;0.93;;;0.38;;
38238;SDS011;24035;48.900;9.188;2023-04-24T05:17:19;0.98;;;0.28;;
38238;SDS011;24035;48.900;9.188;2023-04-24T05:19:45;1.35;;;0.40;;
38238;SDS011;24035;48.900;9.188;2023-04-24T05:22:11;2.60;;;0.55;;
38238;SDS011;24035;48.900;9.188;2023-04-24T05:24:37;1.65;;;0.50;;
38238;SDS011;24035;48.900;9.188;2023-04-24T05:27:03;1.08;;;0.43;;
38238;SDS011;24035;48.900;9.188;2023-04-24T05:29:32;1.48;;;0.60;;
38238;SDS011;24035;48.900;9.188;2023-04-24T05:31:58;2.03;;;0.60;;
38238;SDS011;24035;48.900;9.188;2023-04-24T05:34:25;1.80;;;0.60;;
38238;SDS011;24035;48.900;9.188;2023-04-24T05:36:51;1.27;;;0.40;;
38238;SDS011;24035;48.900;9.188;2023-04-24T05:39:17;1.80;;;0.52;;
38238;SDS011;24035;48.900;9.188;2023-04-24T05:41:43;1.10;;;0.43;;
38238;SDS011;24035;48.900;9.188;2023-04-24T05:44:08;1.42;;;0.50;;
38238;SDS011;24035;48.900;9.188;2023-04-24T05:46:34;1.98;;;0.57;;
38238;SDS011;24035;48.900;9.188;2023-04-24T05:49:00;3.00;;;0.80;;
38238;SDS011;24035;48.900;9.188;2023-04-24T05:51:26;2.10;;;0.60;;
38238;SDS011;24035;48.900;9.188;2023-04-24T05:53:51;1.83;;;0.60;;
38238;SDS011;24035;48.900;9.188;2023-04-24T05:56:17;2.28;;;0.70;;
38238;SDS011;24035;48.900;9.188;2023-04-24T05:58:43;1.67;;;0.60;;
38238;SDS011;24035;48.900;9.188;2023-04-24T06:01:10;2.10;;;0.60;;
38238;SDS011;24035;48.900;9.188;2023-04-24T06:03:37;2.10;;;0.70;;
38238;SDS011;24035;48.900;9.188;2023-04-24T06:06:03;1.95;;;0.70;;
38238;SDS011;24035;48.900;9.188;2023-04-24T06:08:30;1.85;;;0.68;;
38238;SDS011;24035;48.900;9.188;2023-04-24T06:10:55;2.78;;;0.73;;
38238;SDS011;24035;48.900;9.188;2023-04-24T06:13:21;3.47;;;0.90;;
38238;SDS011;24035;48.900;9.188;2023-04-24T06:15:47;1.67;;;0.77;;
38238;SDS011;24035;48.900;9.188;2023-04-24T06:18:12;3.53;;;1.15;;
38238;SDS011;24035;48.900;9.188;2023-04-24T06:20:38;1.52;;;0.63;;
38238;SDS011;24035;48.900;9.188;2023-04-24T06:23:04;2.22;;;0.60;;
38238;SDS011;24035;48.900;9.188;2023-04-24T06:25:30;2.47;;;0.70;;
38238;SDS011;24035;48.900;9.188;2023-04-24T06:27:56;1.38;;;0.60;;
38238;SDS011;24035;48.900;9.188;2023-04-24T06:30:22;1.50;;;0.60;;
38238;SDS011;24035;48.900;9.188;2023-04-24T06:32:48;1.10;;;0.40;;
38238;SDS011;24035;48.900;9.188;2023-04-24T06:35:14;2.28;;;0.73;;
38238;SDS011;24035;48.900;9.188;2023-04-24T06:37:41;2.13;;;0.70;;
38238;SDS011;24035;48.900;9.188;2023-04-24T06:40:08;1.70;;;0.50;;
38238;SDS011;24035;48.900;9.188;2023-04-24T06:42:34;1.35;;;0.52;;
38238;SDS011;24035;48.900;9.188;2023-04-24T06:45:01;0.82;;;0.38;;
38238;SDS011;24035;48.900;9.188;2023-04-24T06:47:27;1.58;;;0.60;;
38238;SDS011;24035;48.900;9.188;2023-04-24T06:49:53;2.30;;;0.77;;
38238;SDS011;24035;48.900;9.188;2023-04-24T06:52:19;3.40;;;0.60;;
38238;SDS011;24035;48.900;9.188;2023-04-24T06:54:45;0.63;;;0.30;;
38238;SDS011;24035;48.900;9.188;2023-04-24T06:57:10;2.30;;;0.75;;
38238;SDS011;24035;48.900;9.188;2023-04-24T06:59:36;1.75;;;0.52;;
38238;SDS011;24035;48.900;9.188;2023-04-24T07:02:02;2.53;;;0.75;;
38238;SDS011;24035;48.900;9.188;2023-04-24T07:04:28;2.20;;;0.73;;
38238;SDS011;24035;48.900;9.188;2023-04-24T07:06:54;1.40;;;0.50;;
38238;SDS011;24035;48.900;9.188;2023-04-24T07:09:21;1.50;;;0.52;;
38238;SDS011;24035;48.900;9.188;2023-04-24T07:11:48;1.30;;;0.50;;
38238;SDS011;24035;48.900;9.188;2023-04-24T07:14:15;1.83;;;0.68;;
38238;SDS011;24035;48.900;9.188;2023-04-24T07:16:40;1.52;;;0.52;;
38238;SDS011;24035;48.900;9.188;2023-04-24T07:19:07;1.75;;;0.60;;
38238;SDS011;24035;48.900;9.188;2023-04-24T07:21:32;1.88;;;0.70;;
38238;SDS011;24035;48.900;9.188;2023-04-24T07:23:58;1.75;;;0.60;;
38238;SDS011;24035;48.900;9.188;2023-04-24T07:26:25;2.60;;;0.70;;
38238;SDS011;24035;48.900;9.188;2023-04-24T07:28:51;1.98;;;0.70;;
38238;SDS011;24035;48.900;9.188;2023-04-24T07:31:18;2.78;;;0.85;;
38238;SDS011;24035;48.900;9.188;2023-04-24T07:33:43;2.47;;;0.75;;
38238;SDS011;24035;48.900;9.188;2023-04-24T07:36:09;1.13;;;0.45;;
38238;SDS011;24035;48.900;9.188;2023-04-24T07:38:41;1.77;;;0.57;;
38238;SDS011;24035;48.900;9.188;2023-04-24T07:41:07;1.13;;;0.40;;
38238;SDS011;24035;48.900;9.188;2023-04-24T07:43:33;2.42;;;0.60;;
38238;SDS011;24035;48.900;9.188;2023-04-24T07:45:58;2.20;;;0.68;;
38238;SDS011;24035;48.900;9.188;2023-04-24T07:48:24;2.20;;;0.45;;
38238;SDS011;24035;48.900;9.188;2023-04-24T07:50:51;1.73;;;0.68;;
38238;SDS011;24035;48.900;9.188;2023-04-24T07:53:18;1.92;;;0.52;;
38238;SDS011;24035;48.900;9.188;2023-04-24T07:55:43;1.80;;;0.63;;
38238;SDS011;24035;48.900;9.188;2023-04-24T07:58:09;1.75;;;0.50;;
38238;SDS011;24035;48.900;9.188;2023-04-24T08:00:35;1.75;;;0.55;;
38238;SDS011;24035;48.900;9.188;2023-04-24T08:03:01;2.40;;;0.60;;
38238;SDS011;24035;48.900;9.188;2023-04-24T08:05:27;2.58;;;0.80;;
38238;SDS011;24035;48.900;9.188;2023-04-24T08:07:53;1.92;;;0.65;;
38238;SDS011;24035;48.900;9.188;2023-04-24T08:10:20;1.77;;;0.52;;
38238;SDS011;24035;48.900;9.188;2023-04-24T08:12:47;1.55;;;0.60;;
38238;SDS011;24035;48.900;9.188;2023-04-24T08:15:13;2.40;;;0.60;;
38238;SDS011;24035;48.900;9.188;2023-04-24T08:17:38;3.05;;;0.50;;
38238;SDS011;24035;48.900;9.188;2023-04-24T08:20:04;1.85;;;0.50;;
38238;SDS011;24035;48.900;9.188;2023-04-24T08:22:35;0.85;;;0.40;;
38238;SDS011;24035;48.900;9.188;2023-04-24T08:25:01;1.98;;;0.70;;
38238;SDS011;24035;48.900;9.188;2023-04-24T08:27:27;2.38;;;0.80;;
38238;SDS011;24035;48.900;9.188;2023-04-24T08:29:53;1.83;;;0.60;;
38238;SDS011;24035;48.900;9.188;2023-04-24T08:32:19;1.52;;;0.60;;
38238;SDS011;24035;48.900;9.188;2023-04-24T08:34:44;3.25;;;0.50;;
38238;SDS011;24035;48.900;9.188;2023-04-24T08:37:10;2.92;;;0.60;;
38238;SDS011;24035;48.900;9.188;2023-04-24T08:39:36;1.65;;;0.40;;
38238;SDS011;24035;48.900;9.188;2023-04-24T08:42:02;1.33;;;0.43;;
38238;SDS011;24035;48.900;9.188;2023-04-24T08:44:33;2.30;;;0.70;;
38238;SDS011;24035;48.900;9.188;2023-04-24T08:47:00;1.58;;;0.50;;
38238;SDS011;24035;48.900;9.188;2023-04-24T08:49:27;3.10;;;0.63;;
38238;SDS011;24035;48.900;9.188;2023-04-24T08:51:54;3.55;;;0.55;;
38238;SDS011;24035;48.900;9.188;2023-04-24T08:54:20;2.88;;;0.40;;
38238;SDS011;24035;48.900;9.188;2023-04-24T08:56:47;1.83;;;0.68;;
38238;SDS011;24035;48.900;9.188;2023-04-24T08:59:16;2.38;;;0.65;;
38238;SDS011;24035;48.900;9.188;2023-04-24T09:01:42;1.15;;;0.50;;
38238;SDS011;24035;48.900;9.188;2023-04-24T09:04:10;4.93;;;0.52;;
38238;SDS011;24035;48.900;9.188;2023-04-24T09:06:38;2.70;;;0.38;;
38238;SDS011;24035;48.900;9.188;2023-04-24T09:09:04;3.80;;;0.60;;
38238;SDS011;24035;48.900;9.188;2023-04-24T09:11:33;0.73;;;0.30;;
38238;SDS011;24035;48.900;9.188;2023-04-24T09:13:59;1.55;;;0.60;;
38238;SDS011;24035;48.900;9.188;2023-04-24T09:16:27;1.88;;;0.45;;
38238;SDS011;24035;48.900;9.188;2023-04-24T09:18:53;1.67;;;0.43;;
38238;SDS011;24035;48.900;9.188;2023-04-24T09:21:20;0.85;;;0.32;;
38238;SDS011;24035;48.900;9.188;2023-04-24T09:23:47;1.70;;;0.60;;
38238;SDS011;24035;48.900;9.188;2023-04-24T09:26:23;1.40;;;0.47;;
38238;SDS011;24035;48.900;9.188;2023-04-24T09:28:49;2.90;;;0.40;;
38238;SDS011;24035;48.900;9.188;2023-04-24T09:31:18;2.20;;;0.57;;
38238;SDS011;24035;48.900;9.188;2023-04-24T09:34:02;0.90;;;0.30;;
38238;SDS011;24035;48.900;9.188;2023-04-24T09:36:31;0.30;;;0.20;;
38238;SDS011;24035;48.900;9.188;2023-04-24T09:39:02;0.88;;;0.20;;
38238;SDS011;24035;48.900;9.188;2023-04-24T09:41:31;0.80;;;0.30;;
38238;SDS011;24035;48.900;9.188;2023-04-24T09:43:58;0.45;;;0.20;;
38238;SDS011;24035;48.900;9.188;2023-04-24T09:46:41;0.30;;;0.20;;
38238;SDS011;24035;48.900;9.188;2023-04-24T09:49:08;1.45;;;0.30;;
38238;SDS011;24035;48.900;9.188;2023-04-24T09:51:36;1.48;;;0.38;;
38238;SDS011;24035;48.900;9.188;2023-04-24T09:54:03;1.73;;;0.40;;
38238;SDS011;24035;48.900;9.188;2023-04-24T09:56:36;0.70;;;0.30;;
38238;SDS011;24035;48.900;9.188;2023-04-24T09:59:05;1.02;;;0.50;;
38238;SDS011;24035;48.900;9.188;2023-04-24T10:01:31;1.65;;;0.50;;
38238;SDS011;24035;48.900;9.188;2023-04-24T10:03:58;1.75;;;0.50;;
38238;SDS011;24035;48.900;9.188;2023-04-24T10:06:29;0.85;;;0.20;;
38238;SDS011;24035;48.900;9.188;2023-04-24T10:08:57;3.97;;;0.45;;
38238;SDS011;24035;48.900;9.188;2023-04-24T10:11:26;1.20;;;0.40;;
38238;SDS011;24035;48.900;9.188;2023-04-24T10:13:52;1.33;;;0.35;;
38238;SDS011;24035;48.900;9.188;2023-04-24T10:16:18;1.55;;;0.47;;
38238;SDS011;24035;48.900;9.188;2023-04-24T10:18:46;1.75;;;0.50;;
38238;SDS011;24035;48.900;9.188;2023-04-24T10:21:14;1.10;;;0.40;;
38238;SDS011;24035;48.900;9.188;2023-04-24T10:23:40;2.72;;;0.75;;
38238;SDS011;24035;48.900;9.188;2023-04-24T10:26:08;0.85;;;0.40;;
38238;SDS011;24035;48.900;9.188;2023-04-24T10:28:35;1.50;;;0.43;;
38238;SDS011;24035;48.900;9.188;2023-04-24T10:31:01;1.08;;;0.40;;
38238;SDS011;24035;48.900;9.188;2023-04-24T10:33:28;0.90;;;0.40;;
38238;SDS011;24035;48.900;9.188;2023-04-24T10:35:55;1.38;;;0.30;;
38238;SDS011;24035;48.900;9.188;2023-04-24T10:38:24;1.45;;;0.43;;
38238;SDS011;24035;48.900;9.188;2023-04-24T10:40:51;1.15;;;0.50;;
38238;SDS011;24035;48.900;9.188;2023-04-24T10:43:31;1.38;;;0.55;;
38238;SDS011;24035;48.900;9.188;2023-04-24T10:46:02;3.10;;;0.50;;
38238;SDS011;24035;48.900;9.188;2023-04-24T10:48:29;4.25;;;0.63;;
38238;SDS011;24035;48.900;9.188;2023-04-24T10:50:55;1.00;;;0.40;;
38238;SDS011;24035;48.900;9.188;2023-04-24T10:53:22;2.42;;;0.60;;
38238;SDS011;24035;48.900;9.188;2023-04-24T10:56:02;3.10;;;0.70;;
38238;SDS011;24035;48.900;9.188;2023-04-24T10:58:38;1.45;;;0.50;;
38238;SDS011;24035;48.900;9.188;2023-04-24T11:01:22;1.67;;;0.60;;
38238;SDS011;24035;48.900;9.188;2023-04-24T11:03:56;1.98;;;0.70;;
38238;SDS011;24035;48.900;9.188;2023-04-24T11:06:33;1.42;;;0.38;;
38238;SDS011;24035;48.900;9.188;2023-04-24T11:09:10;5.18;;;0.40;;
38238;SDS011;24035;48.900;9.188;2023-04-24T11:11:44;1.52;;;0.57;;
38238;SDS011;24035;48.900;9.188;2023-04-24T11:14:10;1.13;;;0.40;;
38238;SDS011;24035;48.900;9.188;2023-04-24T11:16:52;0.93;;;0.40;;
38238;SDS011;24035;48.900;9.188;2023-04-24T11:19:23;1.60;;;0.70;;
38238;SDS011;24035;48.900;9.188;2023-04-24T11:32:27;1.70;;;0.70;;
38238;SDS011;24035;48.900;9.188;2023-04-24T11:34:55;1.27;;;0.43;;
38238;SDS011;24035;48.900;9.188;2023-04-24T11:37:22;4.03;;;0.73;;
38238;SDS011;24035;48.900;9.188;2023-04-24T11:39:50;1.30;;;0.60;;
38238;SDS011;24035;48.900;9.188;2023-04-24T11:42:16;1.67;;;0.50;;
38238;SDS011;24035;48.900;9.188;2023-04-24T11:44:44;2.60;;;0.68;;
38238;SDS011;24035;48.900;9.188;2023-04-24T11:47:12;1.45;;;0.70;;
38238;SDS011;24035;48.900;9.188;2023-04-24T11:49:38;1.38;;;0.50;;
38238;SDS011;24035;48.900;9.188;2023-04-24T11:52:04;1.42;;;0.32;;
38238;SDS011;24035;48.900;9.188;2023-04-24T11:54:30;1.60;;;0.50;;
38238;SDS011;24035;48.900;9.188;2023-04-24T11:56:56;0.80;;;0.32;;
38238;SDS011;24035;48.900;9.188;2023-04-24T11:59:22;1.33;;;0.40;;
38238;SDS011;24035;48.900;9.188;2023-04-24T12:01:48;1.60;;;0.50;;
38238;SDS011;24035;48.900;9.188;2023-04-24T12:04:15;1.65;;;0.60;;
38238;SDS011;24035;48.900;9.188;2023-04-24T12:10:03;2.47;;;0.63;;
38238;SDS011;24035;48.900;9.188;2023-04-24T12:12:24;0.75;;;0.40;;
38238;SDS011;24035;48.900;9.188;2023-04-24T12:14:55;1.77;;;0.52;;
38238;SDS011;24035;48.900;9.188;2023-04-24T12:17:25;1.95;;;0.70;;
38238;SDS011;24035;48.900;9.188;2023-04-24T12:19:59;1.75;;;0.63;;
38238;SDS011;24035;48.900;9.188;2023-04-24T12:22:46;2.55;;;0.77;;
38238;SDS011;24035;48.900;9.188;2023-04-24T12:25:14;2.28;;;0.70;;
38238;SDS011;24035;48.900;9.188;2023-04-24T12:27:41;3.33;;;0.63;;
38238;SDS011;24035;48.900;9.188;2023-04-24T12:30:12;1.90;;;0.60;;
38238;SDS011;24035;48.900;9.188;2023-04-24T12:32:41;2.00;;;0.65;;
38238;SDS011;24035;48.900;9.188;2023-04-24T12:35:08;0.98;;;0.50;;
38238;SDS011;24035;48.900;9.188;2023-04-24T12:37:34;3.95;;;0.47;;
38238;SDS011;24035;48.900;9.188;2023-04-24T12:42:34;1.50;;;0.55;;
38238;SDS011;24035;48.900;9.188;2023-04-24T12:45:06;1.45;;;0.50;;
38238;SDS011;24035;48.900;9.188;2023-04-24T12:47:33;1.00;;;0.40;;
38238;SDS011;24035;48.900;9.188;2023-04-24T12:50:00;2.17;;;0.50;;
38238;SDS011;24035;48.900;9.188;2023-04-24T12:52:27;2.22;;;0.80;;
38238;SDS011;24035;48.900;9.188;2023-04-24T12:54:54;1.65;;;0.57;;
38238;SDS011;24035;48.900;9.188;2023-04-24T12:57:22;1.92;;;0.70;;
38238;SDS011;24035;48.900;9.188;2023-04-24T12:59:48;2.47;;;0.80;;
38238;SDS011;24035;48.900;9.188;2023-04-24T13:02:14;1.95;;;0.65;;
38238;SDS011;24035;48.900;9.188;2023-04-24T13:04:49;1.65;;;0.60;;
38238;SDS011;24035;48.900;9.188;2023-04-24T13:07:15;2.50;;;0.60;;
38238;SDS011;24035;48.900;9.188;2023-04-24T13:09:42;12.85;;;3.83;;
38238;SDS011;24035;48.900;9.188;2023-04-24T13:12:08;80.15;;;24.08;;
38238;SDS011;24035;48.900;9.188;2023-04-24T13:14:35;58.45;;;18.88;;
38238;SDS011;24035;48.900;9.188;2023-04-24T13:17:02;106.20;;;33.97;;
38238;SDS011;24035;48.900;9.188;2023-04-24T13:19:28;52.92;;;16.77;;
38238;SDS011;24035;48.900;9.188;2023-04-24T13:21:54;94.60;;;28.02;;
38238;SDS011;24035;48.900;9.188;2023-04-24T13:24:22;23.83;;;7.38;;
38238;SDS011;24035;48.900;9.188;2023-04-24T13:26:52;56.70;;;14.10;;
38238;SDS011;24035;48.900;9.188;2023-04-24T13:29:18;10.23;;;3.65;;
38238;SDS011;24035;48.900;9.188;2023-04-24T13:31:45;26.77;;;7.30;;
38238;SDS011;24035;48.900;9.188;2023-04-24T13:34:12;7.68;;;3.35;;
38238;SDS011;24035;48.900;9.188;2023-04-24T13:36:38;5.07;;;3.40;;
38238;SDS011;24035;48.900;9.188;2023-04-24T13:39:05;3.22;;;1.13;;
38238;SDS011;24035;48.900;9.188;2023-04-24T13:41:32;2.33;;;1.00;;
38238;SDS011;24035;48.900;9.188;2023-04-24T13:43:58;2.42;;;0.90;;
38238;SDS011;24035;48.900;9.188;2023-04-24T13:46:24;1.80;;;0.73;;
38238;SDS011;24035;48.900;9.188;2023-04-24T13:48:50;3.72;;;1.42;;
38238;SDS011;24035;48.900;9.188;2023-04-24T13:51:15;13.88;;;6.10;;
38238;SDS011;24035;48.900;9.188;2023-04-24T13:53:41;2.15;;;1.10;;
38238;SDS011;24035;48.900;9.188;2023-04-24T13:56:08;4.00;;;0.93;;
38238;SDS011;24035;48.900;9.188;2023-04-24T13:58:34;4.32;;;0.80;;
38238;SDS011;24035;48.900;9.188;2023-04-24T14:01:02;2.47;;;0.63;;
38238;SDS011;24035;48.900;9.188;2023-04-24T14:03:28;1.73;;;0.70;;
38238;SDS011;24035;48.900;9.188;2023-04-24T14:05:54;2.35;;;0.80;;
38238;SDS011;24035;48.900;9.188;2023-04-24T14:08:20;2.13;;;0.80;;
38238;SDS011;24035;48.900;9.188;2023-04-24T14:10:46;5.32;;;0.80;;
38238;SDS011;24035;48.900;9.188;2023-04-24T14:13:12;3.33;;;0.47;;
38238;SDS011;24035;48.900;9.188;2023-04-24T14:15:38;1.40;;;0.57;;
38238;SDS011;24035;48.900;9.188;2023-04-24T14:18:04;1.83;;;0.65;;
38238;SDS011;24035;48.900;9.188;2023-04-24T14:20:30;1.65;;;0.60;;
38238;SDS011;24035;48.900;9.188;2023-04-24T14:22:56;4.25;;;0.65;;
38238;SDS011;24035;48.900;9.188;2023-04-24T14:25:24;2.03;;;0.70;;
38238;SDS011;24035;48.900;9.188;2023-04-24T14:27:50;1.35;;;0.57;;
38238;SDS011;24035;48.900;9.188;2023-04-24T14:30:16;2.67;;;0.70;;
38238;SDS011;24035;48.900;9.188;2023-04-24T14:32:42;2.95;;;0.70;;
38238;SDS011;24035;48.900;9.188;2023-04-24T14:35:08;2.20;;;0.70;;
38238;SDS011;24035;48.900;9.188;2023-04-24T14:37:34;2.90;;;0.70;;
38238;SDS011;24035;48.900;9.188;2023-04-24T14:40:00;2.50;;;0.60;;
38238;SDS011;24035;48.900;9.188;2023-04-24T14:42:26;1.38;;;0.55;;
38238;SDS011;24035;48.900;9.188;2023-04-24T14:44:53;1.67;;;0.47;;
38238;SDS011;24035;48.900;9.188;2023-04-24T14:47:19;1.75;;;0.88;;
38238;SDS011;24035;48.900;9.188;2023-04-24T14:49:47;2.28;;;0.68;;
38238;SDS011;24035;48.900;9.188;2023-04-24T14:52:13;1.83;;;0.77;;
38238;SDS011;24035;48.900;9.188;2023-04-24T14:54:39;4.78;;;0.90;;
38238;SDS011;24035;48.900;9.188;2023-04-24T14:57:05;1.67;;;0.60;;
38238;SDS011;24035;48.900;9.188;2023-04-24T14:59:30;1.55;;;0.65;;
38238;SDS011;24035;48.900;9.188;2023-04-24T15:01:57;1.15;;;0.40;;